createdAt,value
2023-03-03T00:01:13.775Z,7.78
2023-03-03T00:03:56.439Z,8.05
2023-03-03T00:06:39.395Z,7.07
2023-03-03T00:09:22.037Z,8.05
2023-03-03T00:12:19.332Z,6.95
2023-03-03T00:15:01.981Z,6.68
2023-03-03T00:17:44.624Z,6.78
2023-03-03T00:20:30.000Z,7.35
2023-03-03T00:23:18.797Z,6.90
2023-03-03T00:26:01.474Z,6.80
2023-03-03T00:28:47.451Z,6.90
2023-03-03T00:31:31.979Z,6.18
2023-03-03T00:34:25.410Z,6.47
2023-03-03T00:37:21.061Z,6.90
2023-03-03T00:40:14.681Z,6.47
2023-03-03T00:42:58.946Z,7.43
2023-03-03T00:45:44.825Z,6.15
2023-03-03T00:48:28.326Z,6.50
2023-03-03T00:51:20.209Z,6.80
2023-03-03T00:54:03.192Z,7.20
2023-03-03T00:56:45.990Z,6.60
2023-03-03T00:59:28.699Z,6.85
2023-03-03T01:02:12.776Z,6.85
2023-03-03T01:04:56.571Z,6.13
2023-03-03T01:07:39.187Z,7.28
2023-03-03T01:10:22.008Z,6.97
2023-03-03T01:13:05.680Z,6.63
2023-03-03T01:15:48.349Z,6.38
2023-03-03T01:18:32.597Z,6.07
2023-03-03T01:21:15.291Z,6.38
2023-03-03T01:23:57.993Z,6.70
2023-03-03T01:26:40.589Z,7.07
2023-03-03T01:29:23.217Z,6.60
2023-03-03T01:32:05.988Z,6.70
2023-03-03T01:34:50.005Z,6.22
2023-03-03T01:37:32.620Z,6.68
2023-03-03T01:40:17.302Z,7.00
2023-03-03T01:43:00.297Z,7.20
2023-03-03T01:46:01.641Z,7.22
2023-03-03T01:48:45.940Z,6.18
2023-03-03T01:51:30.637Z,6.40
2023-03-03T01:54:15.728Z,6.45
2023-03-03T01:57:00.352Z,6.80
2023-03-03T01:59:44.704Z,6.70
2023-03-03T02:02:28.770Z,6.45
2023-03-03T02:05:11.680Z,6.28
2023-03-03T02:07:55.953Z,6.20
2023-03-03T02:10:38.561Z,5.53
2023-03-03T02:13:21.178Z,5.88
2023-03-03T02:16:03.986Z,6.15
2023-03-03T02:18:46.597Z,5.90
2023-03-03T02:21:29.463Z,6.13
2023-03-03T02:24:16.635Z,6.35
2023-03-03T02:27:00.865Z,6.18
2023-03-03T02:29:44.883Z,6.05
2023-03-03T02:32:27.605Z,6.22
2023-03-03T02:35:30.068Z,6.50
2023-03-03T02:38:20.422Z,5.78
2023-03-03T02:41:10.215Z,5.78
2023-03-03T02:43:56.685Z,5.68
2023-03-03T02:46:41.023Z,6.10
2023-03-03T02:49:24.421Z,5.47
2023-03-03T02:52:09.635Z,5.80
2023-03-03T02:54:52.946Z,5.00
2023-03-03T02:57:35.605Z,5.47
2023-03-03T03:00:21.495Z,5.20
2023-03-03T03:03:04.288Z,5.70
2023-03-03T03:05:47.817Z,5.88
2023-03-03T03:08:30.552Z,5.60
2023-03-03T03:11:13.216Z,5.82
2023-03-03T03:13:56.176Z,5.40
2023-03-03T03:16:40.614Z,4.97
2023-03-03T03:19:23.247Z,5.38
2023-03-03T03:22:06.804Z,5.78
2023-03-03T03:24:51.317Z,5.28
2023-03-03T03:27:33.970Z,5.50
2023-03-03T03:30:16.874Z,5.25
2023-03-03T03:33:00.859Z,5.53
2023-03-03T03:35:45.699Z,5.28
2023-03-03T03:38:31.541Z,5.47
2023-03-03T03:41:14.636Z,5.60
2023-03-03T03:43:57.240Z,5.30
2023-03-03T03:46:40.482Z,5.03
2023-03-03T03:49:25.173Z,5.57
2023-03-03T03:52:09.197Z,5.22
2023-03-03T03:54:51.877Z,5.25
2023-03-03T03:57:35.063Z,5.10
2023-03-03T04:00:17.963Z,5.30
2023-03-03T04:03:06.966Z,5.22
2023-03-03T04:05:53.362Z,5.90
2023-03-03T04:08:36.038Z,5.70
2023-03-03T04:11:19.293Z,5.47
2023-03-03T04:14:02.620Z,5.28
2023-03-03T04:16:45.563Z,5.55
2023-03-03T04:19:28.778Z,5.30
2023-03-03T04:22:13.620Z,5.45
2023-03-03T04:24:56.245Z,5.68
2023-03-03T04:27:38.952Z,5.88
2023-03-03T04:30:22.738Z,5.43
2023-03-03T04:33:09.191Z,5.55
2023-03-03T04:35:53.977Z,5.43
2023-03-03T04:38:38.476Z,5.32
2023-03-03T04:41:21.383Z,4.82
2023-03-03T04:44:04.139Z,5.40
2023-03-03T04:46:47.386Z,5.25
2023-03-03T04:49:30.044Z,5.50
2023-03-03T04:52:13.488Z,5.25
2023-03-03T04:54:57.506Z,4.93
2023-03-03T04:57:40.864Z,5.47
2023-03-03T05:00:23.800Z,5.85
2023-03-03T05:03:06.501Z,5.32
2023-03-03T05:05:49.266Z,5.43
2023-03-03T05:08:31.879Z,5.85
2023-03-03T05:11:15.788Z,5.70
2023-03-03T05:13:58.353Z,5.78
2023-03-03T05:16:40.951Z,5.90
2023-03-03T05:19:24.173Z,5.78
2023-03-03T05:22:06.880Z,5.97
2023-03-03T05:24:49.519Z,5.15
2023-03-03T05:27:33.509Z,5.28
2023-03-03T05:30:16.216Z,5.60
2023-03-03T05:32:59.343Z,5.75
2023-03-03T05:35:41.990Z,5.90
2023-03-03T05:38:24.816Z,5.00
2023-03-03T05:41:07.472Z,5.88
2023-03-03T05:43:51.438Z,5.03
2023-03-03T05:46:34.161Z,5.47
2023-03-03T05:49:16.759Z,5.28
2023-03-03T05:51:59.446Z,5.55
2023-03-03T05:54:42.026Z,5.40
2023-03-03T05:57:24.669Z,4.88
2023-03-03T06:00:09.633Z,5.00
2023-03-03T06:02:55.466Z,5.10
2023-03-03T06:05:38.170Z,4.82
2023-03-03T06:08:20.810Z,5.50
2023-03-03T06:11:03.501Z,5.57
2023-03-03T06:13:46.321Z,4.88
2023-03-03T06:16:30.313Z,5.13
2023-03-03T06:19:19.011Z,5.05
2023-03-03T06:22:01.633Z,4.95
2023-03-03T06:24:44.374Z,4.95
2023-03-03T06:27:27.449Z,4.45
2023-03-03T06:30:10.665Z,4.35
2023-03-03T06:32:54.736Z,4.10
2023-03-03T06:35:37.546Z,4.40
2023-03-03T06:38:20.352Z,4.80
2023-03-03T06:41:07.183Z,4.32
2023-03-03T06:43:49.769Z,3.95
2023-03-03T06:46:32.389Z,4.53
2023-03-03T06:49:16.382Z,4.13
2023-03-03T06:51:59.883Z,4.60
2023-03-03T06:54:42.705Z,4.70
2023-03-03T06:57:27.256Z,4.72
2023-03-03T07:00:17.608Z,4.43
2023-03-03T07:03:01.156Z,4.88
2023-03-03T07:05:46.215Z,4.43
2023-03-03T07:08:31.473Z,4.30
2023-03-03T07:11:16.007Z,3.97
2023-03-03T07:13:58.827Z,4.15
2023-03-03T07:16:42.785Z,4.32
2023-03-03T07:19:29.757Z,4.93
2023-03-03T07:22:17.831Z,4.22
2023-03-03T07:25:01.860Z,4.07
2023-03-03T07:27:44.918Z,3.67
2023-03-03T07:30:28.515Z,3.50
2023-03-03T07:33:19.857Z,3.70
2023-03-03T07:36:03.696Z,3.92
2023-03-03T07:38:52.610Z,3.78
2023-03-03T07:41:35.835Z,3.40
2023-03-03T07:44:20.380Z,3.92
2023-03-03T07:47:13.708Z,3.60
2023-03-03T07:49:56.976Z,3.53
2023-03-03T07:52:40.918Z,3.65
2023-03-03T07:55:35.525Z,3.08
2023-03-03T07:58:25.735Z,3.47
2023-03-03T08:01:23.185Z,3.40
2023-03-03T08:04:10.971Z,3.03
2023-03-03T08:06:54.852Z,3.20
2023-03-03T08:09:38.933Z,3.53
2023-03-03T08:12:29.773Z,3.25
2023-03-03T08:15:15.809Z,3.35
2023-03-03T08:18:01.403Z,3.70
2023-03-03T08:20:47.884Z,3.13
2023-03-03T08:23:30.567Z,3.22
2023-03-03T08:26:14.030Z,3.58
2023-03-03T08:28:58.131Z,3.15
2023-03-03T08:31:42.181Z,3.20
2023-03-03T08:34:24.906Z,3.13
2023-03-03T08:37:07.518Z,3.00
2023-03-03T08:39:50.121Z,3.15
2023-03-03T08:42:32.746Z,2.97
2023-03-03T08:45:17.061Z,2.88
2023-03-03T08:48:00.338Z,3.10
2023-03-03T08:50:43.917Z,3.05
2023-03-03T08:53:27.267Z,2.70
2023-03-03T08:56:10.489Z,2.78
2023-03-03T08:59:02.178Z,2.95
2023-03-03T09:01:46.960Z,2.60
2023-03-03T09:04:29.653Z,2.60
2023-03-03T09:07:12.307Z,2.90
2023-03-03T09:09:54.942Z,2.60
2023-03-03T09:12:39.233Z,3.10
2023-03-03T09:15:23.769Z,2.83
2023-03-03T09:18:14.342Z,3.17
2023-03-03T09:20:57.678Z,2.90
2023-03-03T09:23:42.309Z,2.85
2023-03-03T09:26:28.479Z,3.05
2023-03-03T09:29:19.294Z,3.00
2023-03-03T09:32:04.034Z,3.08
2023-03-03T09:34:48.831Z,3.33
2023-03-03T09:37:35.148Z,2.92
2023-03-03T09:40:29.800Z,2.70
2023-03-03T09:43:19.983Z,2.63
2023-03-03T09:46:05.766Z,2.80
2023-03-03T09:48:53.497Z,2.75
2023-03-03T09:51:48.309Z,2.55
2023-03-03T09:54:45.814Z,2.47
2023-03-03T09:57:32.158Z,2.42
2023-03-03T10:00:20.398Z,2.50
2023-03-03T10:03:18.003Z,2.72
2023-03-03T10:06:04.185Z,2.53
2023-03-03T10:08:54.729Z,2.72
2023-03-03T10:11:39.889Z,2.65
2023-03-03T10:14:29.186Z,2.47
2023-03-03T10:17:26.969Z,2.50
2023-03-03T10:20:17.991Z,2.53
2023-03-03T10:23:09.223Z,2.92
2023-03-03T10:25:58.314Z,2.78
2023-03-03T10:28:50.270Z,2.80
2023-03-03T10:31:37.257Z,3.22
2023-03-03T10:34:26.186Z,2.63
2023-03-03T10:37:12.846Z,2.80
2023-03-03T10:40:02.823Z,3.00
2023-03-03T10:42:52.984Z,3.17
2023-03-03T10:45:46.298Z,3.30
2023-03-03T10:48:42.545Z,2.90
2023-03-03T10:51:28.850Z,3.28
2023-03-03T10:54:19.179Z,3.03
2023-03-03T10:57:05.151Z,2.95
2023-03-03T11:00:05.467Z,2.90
2023-03-03T11:02:57.425Z,2.90
2023-03-03T11:05:41.127Z,3.25
2023-03-03T11:08:28.834Z,3.55
2023-03-03T11:11:15.911Z,3.75
2023-03-03T11:14:04.160Z,4.30
2023-03-03T11:16:55.152Z,4.30
2023-03-03T11:19:53.961Z,4.80
2023-03-03T11:22:40.898Z,4.78
2023-03-03T11:25:27.245Z,4.82
2023-03-03T11:28:20.174Z,4.50
2023-03-03T11:31:10.673Z,3.85
2023-03-03T11:33:59.542Z,4.07
2023-03-03T11:36:44.887Z,4.43
2023-03-03T11:39:28.430Z,4.63
2023-03-03T11:42:14.567Z,4.85
2023-03-03T11:45:00.693Z,5.18
2023-03-03T11:47:46.024Z,4.65
2023-03-03T11:50:32.266Z,4.57
2023-03-03T11:53:25.795Z,4.30
2023-03-03T11:56:15.561Z,4.72
2023-03-03T11:59:08.332Z,4.20
2023-03-03T12:01:53.679Z,4.60
2023-03-03T12:04:37.989Z,3.95
2023-03-03T12:07:27.854Z,4.32
2023-03-03T12:10:15.743Z,4.40
2023-03-03T12:13:02.604Z,4.40
2023-03-03T12:15:49.465Z,4.00
2023-03-03T12:18:37.662Z,4.20
2023-03-03T12:21:25.193Z,4.32
2023-03-03T12:24:15.920Z,4.30
2023-03-03T12:27:04.141Z,4.97
2023-03-03T12:29:52.886Z,4.65
2023-03-03T12:32:46.994Z,4.18
2023-03-03T12:35:32.202Z,4.25
2023-03-03T12:38:21.318Z,4.20
2023-03-03T12:41:08.779Z,4.30
2023-03-03T12:43:55.797Z,4.65
2023-03-03T12:46:45.086Z,3.90
2023-03-03T12:49:42.504Z,3.97
2023-03-03T12:52:31.577Z,3.53
2023-03-03T12:55:17.988Z,3.95
2023-03-03T12:58:05.672Z,3.85
2023-03-03T13:00:54.935Z,3.47
2023-03-03T13:03:54.983Z,4.15
2023-03-03T13:06:43.922Z,3.45
2023-03-03T13:09:32.765Z,3.50
2023-03-03T13:12:29.667Z,3.45
2023-03-03T13:15:18.246Z,3.45
2023-03-03T13:18:09.295Z,3.50
2023-03-03T13:20:55.066Z,3.03
2023-03-03T13:23:46.817Z,2.50
2023-03-03T13:26:34.783Z,2.50
2023-03-03T13:29:20.762Z,1.88
2023-03-03T13:32:09.847Z,1.45
2023-03-03T13:34:55.898Z,1.40
2023-03-03T13:37:41.127Z,1.40
2023-03-03T13:40:25.222Z,1.30
2023-03-03T13:43:11.565Z,1.50
2023-03-03T13:46:05.479Z,1.45
2023-03-03T13:49:02.415Z,1.40
2023-03-03T13:51:46.795Z,1.25
2023-03-03T13:54:42.513Z,1.17
2023-03-03T13:57:38.693Z,1.13
2023-03-03T14:00:26.509Z,0.77
2023-03-03T14:03:24.043Z,0.80
2023-03-03T14:06:11.506Z,0.70
2023-03-03T14:09:01.833Z,0.73
2023-03-03T14:11:48.063Z,0.90
2023-03-03T14:14:38.612Z,0.90
2023-03-03T14:17:28.768Z,0.80
2023-03-03T14:20:15.663Z,0.70
2023-03-03T14:23:00.881Z,0.70
2023-03-03T14:25:54.604Z,0.60
2023-03-03T14:28:40.692Z,0.85
2023-03-03T14:31:24.044Z,0.80
2023-03-03T14:34:15.815Z,0.93
2023-03-03T14:37:09.498Z,0.80
2023-03-03T14:40:04.010Z,0.80
2023-03-03T14:42:54.790Z,0.85
2023-03-03T14:45:38.313Z,0.73
2023-03-03T14:48:21.454Z,0.85
2023-03-03T14:51:17.256Z,1.13
2023-03-03T14:53:59.894Z,1.10
2023-03-03T14:56:56.498Z,0.80
2023-03-03T14:59:40.800Z,0.88
2023-03-03T15:02:29.363Z,1.10
2023-03-03T15:05:19.316Z,1.00
2023-03-03T15:08:09.811Z,1.25
2023-03-03T15:10:52.461Z,1.05
2023-03-03T15:13:36.897Z,1.17
2023-03-03T15:16:21.847Z,1.05
2023-03-03T15:19:22.344Z,0.93
2023-03-03T15:22:08.144Z,1.08
2023-03-03T15:24:55.338Z,0.90
2023-03-03T15:27:41.815Z,0.90
2023-03-03T15:30:29.844Z,0.90
2023-03-03T15:33:16.872Z,1.00
2023-03-03T15:36:05.240Z,0.95
2023-03-03T15:38:55.654Z,0.88
2023-03-03T15:41:41.474Z,1.25
2023-03-03T15:44:32.137Z,1.00
2023-03-03T15:47:25.216Z,1.10
2023-03-03T15:50:21.932Z,0.98
2023-03-03T15:53:14.003Z,1.20
2023-03-03T15:56:02.433Z,1.00
2023-03-03T15:58:54.944Z,1.15
2023-03-03T16:01:40.810Z,1.27
2023-03-03T16:04:27.018Z,1.10
2023-03-03T16:07:14.154Z,1.58
2023-03-03T16:10:02.178Z,1.63
2023-03-03T16:12:48.965Z,1.30
2023-03-03T16:15:42.206Z,1.48
2023-03-03T16:18:30.160Z,1.42
2023-03-03T16:21:20.360Z,1.30
2023-03-03T16:24:09.739Z,1.33
2023-03-03T16:26:55.428Z,1.67
2023-03-03T16:29:47.985Z,1.42
2023-03-03T16:32:33.148Z,1.42
2023-03-03T16:35:19.794Z,1.63
2023-03-03T16:38:05.721Z,2.17
2023-03-03T16:40:50.527Z,1.45
2023-03-03T16:43:38.303Z,1.73
2023-03-03T16:46:26.537Z,1.92
2023-03-03T16:49:11.444Z,1.73
2023-03-03T16:51:57.418Z,1.60
2023-03-03T16:54:45.153Z,1.35
2023-03-03T16:57:31.024Z,1.80
2023-03-03T17:00:15.570Z,1.30
2023-03-03T17:03:10.421Z,1.90
2023-03-03T17:05:54.077Z,1.58
2023-03-03T17:08:45.336Z,1.80
2023-03-03T17:11:32.673Z,2.30
2023-03-03T17:14:24.762Z,1.60
2023-03-03T17:17:13.173Z,1.88
2023-03-03T17:20:00.695Z,1.70
2023-03-03T17:22:48.766Z,1.90
2023-03-03T17:25:37.806Z,2.40
2023-03-03T17:28:29.327Z,2.08
2023-03-03T17:31:18.465Z,1.50
2023-03-03T17:34:09.192Z,2.05
2023-03-03T17:36:56.376Z,1.80
2023-03-03T17:40:01.297Z,2.28
2023-03-03T17:42:46.312Z,1.67
2023-03-03T17:45:32.304Z,1.83
2023-03-03T17:48:25.179Z,1.92
2023-03-03T17:51:37.126Z,2.00
2023-03-03T17:54:38.235Z,1.83
2023-03-03T17:57:30.397Z,2.03
2023-03-03T18:00:23.792Z,1.60
2023-03-03T18:03:21.603Z,2.05
2023-03-03T18:06:23.041Z,1.50
2023-03-03T18:09:15.200Z,2.00
2023-03-03T18:12:01.194Z,2.00
2023-03-03T18:14:52.141Z,2.20
2023-03-03T18:17:36.514Z,2.05
2023-03-03T18:20:27.452Z,2.63
2023-03-03T18:23:29.207Z,2.22
2023-03-03T18:26:34.831Z,2.08
2023-03-03T18:29:22.696Z,2.15
2023-03-03T18:32:17.479Z,1.98
2023-03-03T18:35:14.997Z,1.98
2023-03-03T18:37:57.832Z,2.08
2023-03-03T18:40:49.913Z,2.47
2023-03-03T18:43:56.654Z,2.08
2023-03-03T18:46:48.553Z,2.15
2023-03-03T18:49:49.584Z,2.53
2023-03-03T18:52:33.718Z,2.05
2023-03-03T18:55:25.367Z,1.60
2023-03-03T18:58:29.830Z,2.05
2023-03-03T19:01:30.537Z,1.90
2023-03-03T19:04:19.251Z,2.13
2023-03-03T19:07:16.353Z,2.53
2023-03-03T19:10:01.591Z,2.55
2023-03-03T19:12:48.631Z,1.80
2023-03-03T19:15:55.046Z,1.77
2023-03-03T19:18:58.474Z,1.95
2023-03-03T19:21:43.733Z,2.30
2023-03-03T19:24:27.961Z,1.83
2023-03-03T19:27:16.497Z,2.33
2023-03-03T19:30:14.896Z,2.35
2023-03-03T19:33:15.426Z,2.50
2023-03-03T19:36:15.849Z,2.03
2023-03-03T19:39:13.420Z,2.05
2023-03-03T19:42:02.434Z,2.60
2023-03-03T19:44:51.829Z,1.92
2023-03-03T19:47:37.771Z,2.42
2023-03-03T19:50:25.987Z,2.35
2023-03-03T19:53:12.291Z,1.95
2023-03-03T19:56:02.427Z,2.70
2023-03-03T19:58:51.009Z,2.22
2023-03-03T20:01:43.251Z,2.10
2023-03-03T20:04:35.632Z,2.03
2023-03-03T20:07:24.536Z,2.03
2023-03-03T20:10:20.455Z,2.00
2023-03-03T20:13:13.016Z,2.20
2023-03-03T20:16:00.776Z,2.17
2023-03-03T20:18:58.752Z,2.35
2023-03-03T20:21:44.401Z,2.20
2023-03-03T20:24:39.836Z,2.40
2023-03-03T20:27:25.128Z,2.25
2023-03-03T20:30:13.429Z,2.25
2023-03-03T20:33:01.616Z,2.05
2023-03-03T20:35:49.680Z,2.40
2023-03-03T20:38:39.183Z,2.50
2023-03-03T20:41:27.540Z,2.55
2023-03-03T20:44:15.603Z,2.42
2023-03-03T20:47:04.848Z,2.00
2023-03-03T20:49:55.338Z,2.25
2023-03-03T20:52:43.080Z,1.80
2023-03-03T20:55:29.048Z,2.20
2023-03-03T20:58:15.578Z,2.20
2023-03-03T21:01:04.201Z,2.38
2023-03-03T21:03:48.377Z,2.50
2023-03-03T21:06:38.804Z,2.15
2023-03-03T21:09:25.896Z,2.05
2023-03-03T21:12:12.617Z,2.20
2023-03-03T21:15:00.225Z,2.35
2023-03-03T21:17:42.896Z,1.88
2023-03-03T21:20:30.992Z,1.67
2023-03-03T21:23:13.723Z,1.70
2023-03-03T21:25:56.699Z,1.88
2023-03-03T21:28:39.306Z,1.98
2023-03-03T21:31:22.260Z,1.60
2023-03-03T21:34:18.327Z,1.48
2023-03-03T21:37:03.495Z,1.88
2023-03-03T21:39:46.177Z,1.80
2023-03-03T21:42:40.369Z,1.70
2023-03-03T21:45:23.749Z,2.00
2023-03-03T21:48:07.029Z,1.85
2023-03-03T21:50:49.876Z,1.80
2023-03-03T21:53:33.998Z,1.85
2023-03-03T21:56:16.640Z,1.80
2023-03-03T21:58:59.410Z,1.70
2023-03-03T22:01:42.145Z,1.55
2023-03-03T22:04:24.938Z,1.65
2023-03-03T22:07:07.934Z,1.98
2023-03-03T22:09:51.949Z,1.95
2023-03-03T22:12:34.599Z,1.80
2023-03-03T22:15:17.254Z,2.05
2023-03-03T22:17:59.949Z,2.17
2023-03-03T22:20:42.753Z,1.60
2023-03-03T22:23:25.590Z,1.75
2023-03-03T22:26:09.590Z,1.80
2023-03-03T22:28:52.226Z,1.73
2023-03-03T22:31:34.933Z,1.70
2023-03-03T22:34:17.632Z,1.23
2023-03-03T22:37:00.299Z,1.75
2023-03-03T22:39:42.932Z,1.70
2023-03-03T22:42:26.954Z,1.40
2023-03-03T22:45:11.250Z,1.90
2023-03-03T22:47:53.924Z,1.33
2023-03-03T22:50:39.472Z,2.00
2023-03-03T22:53:22.523Z,1.55
2023-03-03T22:56:05.421Z,1.52
2023-03-03T22:58:49.952Z,1.48
2023-03-03T23:01:32.581Z,1.25
2023-03-03T23:04:15.225Z,1.80
2023-03-03T23:06:58.608Z,1.60
2023-03-03T23:09:41.235Z,1.90
2023-03-03T23:12:24.148Z,1.38
2023-03-03T23:15:13.268Z,1.40
2023-03-03T23:17:55.926Z,1.50
2023-03-03T23:20:38.646Z,1.70
2023-03-03T23:23:21.254Z,1.10
2023-03-03T23:26:03.883Z,1.30
2023-03-03T23:28:46.479Z,1.42
2023-03-03T23:31:30.608Z,1.27
2023-03-03T23:34:13.234Z,1.20
2023-03-03T23:36:56.880Z,1.15
2023-03-03T23:39:40.548Z,1.67
2023-03-03T23:42:24.843Z,1.00
2023-03-03T23:45:08.239Z,1.30
2023-03-03T23:47:52.208Z,1.38
2023-03-03T23:50:37.125Z,0.93
2023-03-03T23:53:20.229Z,1.20
2023-03-03T23:56:02.862Z,0.90
2023-03-03T23:58:45.430Z,1.00
